createdAt,value
2019-06-10T00:04:47.550Z,23.3
2019-06-10T00:14:46.783Z,23.3
2019-06-10T00:24:46.017Z,23.3
2019-06-10T00:34:45.248Z,23.2
2019-06-10T00:44:44.526Z,23.2
2019-06-10T00:54:43.707Z,23.1
2019-06-10T01:04:42.944Z,23.1
2019-06-10T01:14:42.177Z,23
2019-06-10T01:24:42.412Z,22.9
2019-06-10T01:34:41.768Z,22.9
2019-06-10T01:44:41.299Z,22.8
2019-06-10T01:54:41.996Z,22.8
2019-06-10T02:04:41.128Z,22.8
2019-06-10T02:14:38.562Z,22.7
2019-06-10T02:24:37.798Z,22.7
2019-06-10T02:34:45.960Z,22.7
2019-06-10T02:44:37.461Z,22.6
2019-06-10T02:54:36.057Z,22.6
2019-06-10T03:04:37.475Z,22.5
2019-06-10T03:14:33.956Z,22.5
2019-06-10T03:24:33.180Z,22.5
2019-06-10T03:34:40.415Z,22.4
2019-06-10T03:44:33.014Z,22.5
2019-06-10T03:54:32.495Z,22.7
2019-06-10T04:04:30.708Z,22.9
2019-06-10T04:14:29.348Z,23.1
2019-06-10T04:24:28.709Z,23.3
2019-06-10T04:34:29.913Z,23.5
2019-06-10T04:44:28.077Z,23.6
2019-06-10T04:54:26.972Z,23.8
2019-06-10T05:04:26.742Z,23.6
2019-06-10T05:14:25.666Z,23.9
2019-06-10T05:24:26.653Z,24.4
2019-06-10T05:34:25.508Z,24.3
2019-06-10T05:44:24.139Z,24.6
2019-06-10T05:54:23.288Z,24.9
2019-06-10T06:04:23.266Z,24.6
2019-06-10T06:14:22.474Z,24.7
2019-06-10T06:24:19.362Z,25.1
2019-06-10T06:34:18.593Z,25.6
2019-06-10T06:44:17.824Z,24.6
2019-06-10T06:54:17.064Z,24.3
2019-06-10T07:04:16.292Z,24.6
2019-06-10T07:14:15.530Z,24.8
2019-06-10T07:24:14.805Z,24.4
2019-06-10T07:34:13.989Z,24.6
2019-06-10T07:44:13.215Z,24.7
2019-06-10T07:54:12.576Z,24.7
2019-06-10T08:04:12.009Z,24.8
2019-06-10T08:14:12.953Z,25.3
2019-06-10T08:24:12.525Z,25.1
2019-06-10T08:34:09.369Z,25.7
2019-06-10T08:44:08.607Z,25.8
2019-06-10T08:54:07.839Z,26.2
2019-06-10T09:04:07.073Z,26.1
2019-06-10T09:14:06.298Z,25.6
2019-06-10T09:24:05.529Z,25.9
2019-06-10T09:34:04.757Z,25.4
2019-06-10T09:44:03.995Z,25.5
2019-06-10T09:54:06.481Z,25.4
2019-06-10T10:04:02.502Z,25.5
2019-06-10T10:14:06.196Z,25.4
2019-06-10T10:24:07.634Z,25.1
2019-06-10T10:34:02.182Z,24.6
2019-06-10T10:43:59.383Z,24.7
2019-06-10T10:54:25.388Z,25
2019-06-10T11:03:59.163Z,25.2
2019-06-10T11:13:58.480Z,25.3
2019-06-10T11:23:59.842Z,25.4
2019-06-10T11:33:57.795Z,25.4
2019-06-10T11:43:57.597Z,25.6
2019-06-10T11:53:55.924Z,25.6
2019-06-10T12:03:55.590Z,25.8
2019-06-10T12:13:57.680Z,25.8
2019-06-10T12:23:54.740Z,25.8
2019-06-10T12:33:53.384Z,25.8
2019-06-10T12:43:50.170Z,25.9
2019-06-10T12:53:49.407Z,26.1
2019-06-10T13:03:48.639Z,26.1
2019-06-10T13:13:47.872Z,26.1
2019-06-10T13:23:47.099Z,26.1
2019-06-10T13:33:46.329Z,26.1
2019-06-10T13:43:45.569Z,26.1
2019-06-10T13:53:46.179Z,26.1
2019-06-10T14:03:44.176Z,26
2019-06-10T14:13:44.164Z,26
2019-06-10T14:23:42.525Z,26
2019-06-10T14:33:42.873Z,25.9
2019-06-10T14:43:42.345Z,25.9
2019-06-10T14:53:42.502Z,25.9
2019-06-10T15:03:39.427Z,25.9
2019-06-10T15:13:38.656Z,25.9
2019-06-10T15:23:37.887Z,25.9
2019-06-10T15:33:37.169Z,25.9
2019-06-10T15:43:36.358Z,25.8
2019-06-10T15:53:35.590Z,25.8
2019-06-10T16:03:34.874Z,25.8
2019-06-10T16:13:34.058Z,25.8
2019-06-10T16:23:34.170Z,25.6
2019-06-10T16:33:33.749Z,25.6
2019-06-10T16:43:33.392Z,25.7
2019-06-10T16:53:34.728Z,25.6
2019-06-10T17:03:31.268Z,25.5
2019-06-10T17:13:30.279Z,25.3
2019-06-10T17:23:33.050Z,25.3
2019-06-10T17:33:29.908Z,25.3
2019-06-10T17:43:27.336Z,25.4
2019-06-10T17:53:26.458Z,25.4
2019-06-10T18:03:26.508Z,25.4
2019-06-10T18:13:26.172Z,25.3
2019-06-10T18:23:24.909Z,25.1
2019-06-10T18:33:23.385Z,25.1
2019-06-10T18:43:23.033Z,25.1
2019-06-10T18:53:23.344Z,25.1
2019-06-10T19:03:23.262Z,25.3
2019-06-10T19:13:22.396Z,25.3
2019-06-10T19:23:19.525Z,25.4
2019-06-10T19:33:18.767Z,25.4
2019-06-10T19:43:17.990Z,25.3
2019-06-10T19:53:17.234Z,25.1
2019-06-10T20:03:16.468Z,24.8
2019-06-10T20:13:15.707Z,24.4
2019-06-10T20:23:14.944Z,24.2
2019-06-10T20:33:14.178Z,24.1
2019-06-10T20:43:13.418Z,23.9
2019-06-10T20:53:18.172Z,23.8
2019-06-10T21:03:11.877Z,23.8
2019-06-10T21:15:02.765Z,23.6
2019-06-10T21:25:02.443Z,23.6
2019-06-10T21:35:03.057Z,23.4
2019-06-10T21:45:00.469Z,23.4
2019-06-10T21:54:59.705Z,23.3
2019-06-10T22:04:58.930Z,23.3
2019-06-10T22:14:58.233Z,23.2
2019-06-10T22:24:57.554Z,23.1
2019-06-10T22:34:57.166Z,23.1
2019-06-10T22:44:57.918Z,23
2019-06-10T22:54:58.354Z,22.9
2019-06-10T23:04:57.976Z,22.9
2019-06-10T23:14:55.976Z,22.8
2019-06-10T23:24:53.574Z,22.8
2019-06-10T23:34:54.599Z,22.7
2019-06-10T23:44:53.030Z,22.6
2019-06-10T23:54:51.584Z,22.6
